Main page
METAR-TAF:

METAR-TAF

Airports :

Moroni, Comoros

Prince Said Ibrahim International Airport

latitude: 11-32S, longitude: 043-16E, elevation: 29 m

Current weather observation

The report was made 1 hour and 6 minutes ago, at 18:00 UTC
Wind 7 kt from the North
Temperature 27°C
Humidity 84%
Pressure 1009 hPa
Visibility 10 km or more
Few clouds at a height of 2200 ft
Scattered clouds at a height of 3000 ft

METAR: FMCH 191800Z 01007KT 9999 FEW022 SCT030 27/24 Q1009 NOSIG

Time: 22:06 (19:06 UTC)

Forecast

The report was made 2 hours and 6 minutes ago, at 17:00 UTC
Forecast valid from 19 at 18 UTC to 20 at 24 UTC
Wind 3 kt from the East/Northeast
Visibility 10 km or more
Few clouds at a height of 2000 ft
Scattered clouds at a height of 2500 ft
Becoming
from 20 at 04 UTC to 20 at 06 UTC
Wind 12 kt from the North/Northwest
Becoming
from 20 at 16 UTC to 20 at 18 UTC
Wind 3 kt from the East/Northeast

TAF: FMCH 191700Z 1918/2024 06003KT 9999 FEW020 SCT025 BECMG 2004/2006 34012KT BECMG 2016/2018 07003KT

Weather observations and forecasts of more than 4000 airports (METAR and TAF reports).

The available stations are represented by yellow and red dots on the map.

Hover mouse over dot to see the name of the station.

Then click to see weather observations and forecasts.

To change the map : click on the green buttons with a black cross to zoom in, on the green button with a dash to zoom out, or on the green arrows for adjacent maps.


METAR-TAF: